createdAt,value
2018-01-25T00:00:31.728Z,0
2018-01-25T00:01:40.561Z,0
2018-01-25T00:02:49.666Z,0
2018-01-25T00:03:58.598Z,0
2018-01-25T00:05:07.703Z,0
2018-01-25T00:06:16.535Z,0
2018-01-25T00:07:25.364Z,0
2018-01-25T00:08:34.195Z,0
2018-01-25T00:09:43.032Z,0
2018-01-25T00:10:52.129Z,0
2018-01-25T00:12:00.960Z,0
2018-01-25T00:13:09.791Z,0
2018-01-25T00:14:18.906Z,0
2018-01-25T00:15:27.836Z,0
2018-01-25T00:16:36.669Z,0
2018-01-25T00:17:45.779Z,0
2018-01-25T00:18:54.611Z,0
2018-01-25T00:20:03.455Z,0
2018-01-25T00:21:12.426Z,0
2018-01-25T00:22:21.258Z,0
2018-01-25T00:23:30.086Z,0
2018-01-25T00:24:38.918Z,0
2018-01-25T00:25:47.750Z,0
2018-01-25T00:26:56.583Z,0
2018-01-25T00:28:05.416Z,0
2018-01-25T00:29:14.249Z,0
2018-01-25T00:30:23.079Z,0
2018-01-25T00:31:31.915Z,0
2018-01-25T00:32:40.748Z,0
2018-01-25T00:33:49.576Z,0
2018-01-25T00:34:58.408Z,0
2018-01-25T00:36:07.238Z,0
2018-01-25T00:37:16.067Z,0
2018-01-25T00:38:25.251Z,0
2018-01-25T00:39:34.082Z,0
2018-01-25T00:40:42.915Z,0
2018-01-25T00:41:51.747Z,0
2018-01-25T00:43:00.574Z,0
2018-01-25T00:44:09.510Z,0
2018-01-25T00:45:18.350Z,0
2018-01-25T00:46:27.174Z,0
2018-01-25T00:47:36.006Z,0
2018-01-25T00:48:44.837Z,0
2018-01-25T00:49:53.676Z,0
2018-01-25T00:51:02.781Z,0
2018-01-25T00:52:11.610Z,0
2018-01-25T00:53:20.449Z,0
2018-01-25T00:54:29.281Z,0
2018-01-25T00:55:38.117Z,0
2018-01-25T00:56:46.942Z,0
2018-01-25T00:57:56.050Z,0
2018-01-25T00:59:04.883Z,0
2018-01-25T01:00:13.985Z,0
2018-01-25T01:01:22.914Z,0
2018-01-25T01:02:32.295Z,0
2018-01-25T01:03:41.125Z,0
2018-01-25T01:04:49.957Z,0
2018-01-25T01:05:59.073Z,0
2018-01-25T01:07:08.477Z,0
2018-01-25T01:08:17.307Z,0
2018-01-25T01:09:26.138Z,0
2018-01-25T01:10:34.970Z,0
2018-01-25T01:11:43.803Z,0
2018-01-25T01:12:52.933Z,0
2018-01-25T01:14:01.767Z,0
2018-01-25T01:15:10.605Z,0
2018-01-25T01:16:19.430Z,0
2018-01-25T01:17:28.535Z,0
2018-01-25T01:18:37.518Z,0
2018-01-25T01:19:46.350Z,0
2018-01-25T01:20:55.184Z,0
2018-01-25T01:22:04.018Z,0
2018-01-25T01:23:13.121Z,0
2018-01-25T01:24:21.952Z,0
2018-01-25T01:25:30.782Z,0
2018-01-25T01:26:39.883Z,0
2018-01-25T01:27:48.715Z,0
2018-01-25T01:28:57.545Z,0
2018-01-25T01:30:06.535Z,0
2018-01-25T01:31:15.366Z,0
2018-01-25T01:32:24.198Z,0
2018-01-25T01:33:33.031Z,0
2018-01-25T01:34:41.863Z,0
2018-01-25T01:35:51.069Z,0
2018-01-25T01:36:59.901Z,0
2018-01-25T01:38:08.729Z,0
2018-01-25T01:39:17.559Z,0
2018-01-25T01:40:26.389Z,0
2018-01-25T01:41:35.219Z,0
2018-01-25T01:42:44.048Z,0
2018-01-25T01:43:52.878Z,0
2018-01-25T01:45:01.709Z,0
2018-01-25T01:46:10.541Z,0
2018-01-25T01:47:19.472Z,0
2018-01-25T01:48:28.301Z,0
2018-01-25T01:49:37.129Z,0
2018-01-25T01:50:45.959Z,0
2018-01-25T01:51:54.792Z,0
2018-01-25T01:53:03.673Z,0
2018-01-25T01:54:12.502Z,0
2018-01-25T01:55:21.333Z,0
2018-01-25T01:56:30.166Z,0
2018-01-25T01:57:39.001Z,0
2018-01-25T01:58:47.932Z,0
2018-01-25T01:59:56.763Z,0
2018-01-25T02:01:05.595Z,0
2018-01-25T02:02:14.425Z,0
2018-01-25T02:03:23.257Z,0
2018-01-25T02:04:32.235Z,0
2018-01-25T02:05:41.066Z,0
2018-01-25T02:06:49.897Z,0
2018-01-25T02:07:58.728Z,0
2018-01-25T02:09:07.557Z,0
2018-01-25T02:10:16.385Z,0
2018-01-25T02:11:25.217Z,0
2018-01-25T02:12:34.046Z,0
2018-01-25T02:13:42.876Z,0
2018-01-25T02:14:51.703Z,0
2018-01-25T02:16:00.834Z,0
2018-01-25T02:17:09.664Z,0
2018-01-25T02:18:18.495Z,0
2018-01-25T02:19:27.324Z,0
2018-01-25T02:20:36.154Z,0
2018-01-25T02:21:45.287Z,0
2018-01-25T02:22:54.114Z,0
2018-01-25T02:24:03.219Z,0
2018-01-25T02:25:12.321Z,0
2018-01-25T02:26:21.151Z,0
2018-01-25T02:27:29.981Z,0
2018-01-25T02:28:38.808Z,0
2018-01-25T02:29:47.638Z,0
2018-01-25T02:30:56.468Z,0
2018-01-25T02:32:05.300Z,0
2018-01-25T02:33:14.333Z,0
2018-01-25T02:34:23.160Z,0
2018-01-25T02:35:31.992Z,0
2018-01-25T02:36:40.820Z,0
2018-01-25T02:37:49.650Z,0
2018-01-25T02:38:58.581Z,0
2018-01-25T02:40:07.418Z,0
2018-01-25T02:41:16.248Z,0
2018-01-25T02:42:25.126Z,0
2018-01-25T02:43:33.910Z,0
2018-01-25T02:44:42.989Z,0
2018-01-25T02:45:51.817Z,0
2018-01-25T02:47:00.648Z,0
2018-01-25T02:48:09.477Z,0
2018-01-25T02:49:18.304Z,0
2018-01-25T02:50:27.135Z,0
2018-01-25T02:51:35.967Z,0
2018-01-25T02:52:44.796Z,0
2018-01-25T02:53:53.899Z,0
2018-01-25T02:55:02.726Z,0
2018-01-25T02:56:11.828Z,0
2018-01-25T02:57:20.658Z,0
2018-01-25T02:58:29.492Z,0
2018-01-25T02:59:38.318Z,0
2018-01-25T03:00:47.146Z,0
2018-01-25T03:01:56.277Z,0
2018-01-25T03:03:05.110Z,0
2018-01-25T03:04:13.932Z,0
2018-01-25T03:05:22.765Z,0
2018-01-25T03:06:31.600Z,0
2018-01-25T03:07:40.481Z,0
2018-01-25T03:08:49.311Z,0
2018-01-25T03:09:58.143Z,0
2018-01-25T03:11:06.970Z,0
2018-01-25T03:12:15.802Z,0
2018-01-25T03:13:24.882Z,0
2018-01-25T03:14:33.712Z,0
2018-01-25T03:15:42.815Z,0
2018-01-25T03:16:51.644Z,0
2018-01-25T03:18:00.474Z,0
2018-01-25T03:19:09.305Z,0
2018-01-25T03:20:18.134Z,0
2018-01-25T03:21:26.963Z,0
2018-01-25T03:22:35.793Z,0
2018-01-25T03:23:44.623Z,0
2018-01-25T03:24:53.602Z,0
2018-01-25T03:26:02.431Z,0
2018-01-25T03:27:11.263Z,0
2018-01-25T03:28:20.093Z,0
2018-01-25T03:29:28.925Z,0
2018-01-25T03:30:38.057Z,0
2018-01-25T03:31:46.885Z,0
2018-01-25T03:32:55.715Z,0
2018-01-25T03:34:04.545Z,0
2018-01-25T03:35:13.377Z,0
2018-01-25T03:36:22.356Z,0
2018-01-25T03:37:31.189Z,0
2018-01-25T03:38:40.019Z,0
2018-01-25T03:39:48.849Z,0
2018-01-25T03:40:57.683Z,0
2018-01-25T03:42:06.511Z,0
2018-01-25T03:43:15.340Z,0
2018-01-25T03:44:24.169Z,0
2018-01-25T03:45:33.000Z,0
2018-01-25T03:46:41.831Z,0
2018-01-25T03:47:50.912Z,0
2018-01-25T03:48:59.742Z,0
2018-01-25T03:50:08.572Z,0
2018-01-25T03:51:17.400Z,0
2018-01-25T03:52:26.228Z,0
2018-01-25T03:53:35.063Z,0
2018-01-25T03:54:43.891Z,0
2018-01-25T03:55:52.722Z,0
2018-01-25T03:57:01.548Z,0
2018-01-25T03:58:10.378Z,0
2018-01-25T03:59:19.309Z,0
2018-01-25T04:00:28.140Z,0
2018-01-25T04:01:37.247Z,0
2018-01-25T04:02:46.077Z,0
2018-01-25T04:03:54.904Z,0
2018-01-25T04:05:04.411Z,0
2018-01-25T04:06:13.517Z,0
2018-01-25T04:07:22.345Z,0
2018-01-25T04:08:31.174Z,0
2018-01-25T04:09:40.003Z,0
2018-01-25T04:10:49.133Z,0
2018-01-25T04:11:57.962Z,0
2018-01-25T04:13:06.794Z,0
2018-01-25T04:14:15.629Z,0
2018-01-25T04:15:24.458Z,0
2018-01-25T04:16:33.286Z,0
2018-01-25T04:17:42.116Z,0
2018-01-25T04:18:50.942Z,0
2018-01-25T04:20:00.057Z,0
2018-01-25T04:21:09.168Z,0
2018-01-25T04:22:18.101Z,0
2018-01-25T04:23:26.929Z,0
2018-01-25T04:24:35.758Z,0
2018-01-25T04:25:44.590Z,0
2018-01-25T04:26:53.421Z,0
2018-01-25T04:28:02.352Z,0
2018-01-25T04:29:11.184Z,0
2018-01-25T04:30:20.015Z,0
2018-01-25T04:31:28.843Z,0
2018-01-25T04:32:37.677Z,0
2018-01-25T04:33:46.604Z,0
2018-01-25T04:34:55.435Z,0
2018-01-25T04:36:04.264Z,0
2018-01-25T04:37:13.093Z,0
2018-01-25T04:38:21.920Z,0
2018-01-25T04:39:31.175Z,0
2018-01-25T04:40:40.005Z,0
2018-01-25T04:41:48.836Z,0
2018-01-25T04:42:57.666Z,0
2018-01-25T04:44:06.495Z,0
2018-01-25T04:45:15.699Z,0.19
2018-01-25T04:46:24.527Z,0.66
2018-01-25T04:47:33.358Z,0.66
2018-01-25T04:48:42.188Z,1.42
2018-01-25T04:49:51.015Z,0.57
2018-01-25T04:50:59.844Z,0.76
2018-01-25T04:52:08.675Z,0
2018-01-25T04:53:17.506Z,0
2018-01-25T04:54:26.335Z,0
2018-01-25T04:55:35.164Z,0.28
2018-01-25T04:56:43.994Z,0.95
2018-01-25T04:57:52.824Z,0.57
2018-01-25T04:59:01.654Z,1.14
2018-01-25T05:00:10.483Z,1.99
2018-01-25T05:01:19.313Z,2.09
2018-01-25T05:02:28.393Z,2.75
2018-01-25T05:03:37.223Z,2.19
2018-01-25T05:04:46.054Z,0.38
2018-01-25T05:05:54.881Z,0
2018-01-25T05:07:03.711Z,0.19
2018-01-25T05:08:12.792Z,3.04
2018-01-25T05:09:21.620Z,3.89
2018-01-25T05:10:30.449Z,2.94
2018-01-25T05:11:39.279Z,3.23
2018-01-25T05:12:48.126Z,4.27
2018-01-25T05:13:57.036Z,5.7
2018-01-25T05:15:05.870Z,4.85
2018-01-25T05:16:14.700Z,4.65
2018-01-25T05:17:23.532Z,5.79
2018-01-25T05:18:32.364Z,5.79
2018-01-25T05:19:41.594Z,5.6
2018-01-25T05:20:50.424Z,4.65
2018-01-25T05:21:59.253Z,1.61
2018-01-25T05:23:08.080Z,5.13
2018-01-25T05:24:16.912Z,5.32
2018-01-25T05:25:25.893Z,4.37
2018-01-25T05:26:34.998Z,5.13
2018-01-25T05:27:44.103Z,5.41
2018-01-25T05:28:52.933Z,7.41
2018-01-25T05:30:01.762Z,6.46
2018-01-25T05:31:10.743Z,6.18
2018-01-25T05:32:19.573Z,5.51
2018-01-25T05:33:28.402Z,6.65
2018-01-25T05:34:37.231Z,6.46
2018-01-25T05:35:46.060Z,7.31
2018-01-25T05:36:54.990Z,7.51
2018-01-25T05:38:03.819Z,8.64
2018-01-25T05:39:12.648Z,8.17
2018-01-25T05:40:21.482Z,9.12
2018-01-25T05:41:30.313Z,9.97
2018-01-25T05:42:39.143Z,8.74
2018-01-25T05:43:47.973Z,9.5
2018-01-25T05:44:56.800Z,8.74
2018-01-25T05:46:06.179Z,10.07
2018-01-25T05:47:15.011Z,10.26
2018-01-25T05:48:24.114Z,11.59
2018-01-25T05:49:32.944Z,9.03
2018-01-25T05:50:41.774Z,8.07
2018-01-25T05:51:50.605Z,10.93
2018-01-25T05:52:59.434Z,12.82
2018-01-25T05:54:08.265Z,13.59
2018-01-25T05:55:17.097Z,12.35
2018-01-25T05:56:25.925Z,13.21
2018-01-25T05:57:34.757Z,13.87
2018-01-25T05:58:43.588Z,13.11
2018-01-25T05:59:52.838Z,13.11
2018-01-25T06:01:01.669Z,11.02
2018-01-25T06:02:10.548Z,13.96
2018-01-25T06:03:19.330Z,14.44
2018-01-25T06:04:28.159Z,12.63
2018-01-25T06:05:36.989Z,14.06
2018-01-25T06:06:45.821Z,13.87
2018-01-25T06:07:54.650Z,14.25
2018-01-25T06:09:03.479Z,14.35
2018-01-25T06:10:12.307Z,14.72
2018-01-25T06:11:21.415Z,15.39
2018-01-25T06:12:30.249Z,15.58
2018-01-25T06:13:39.078Z,15.2
2018-01-25T06:14:47.909Z,16.25
2018-01-25T06:15:56.741Z,17.1
2018-01-25T06:17:05.622Z,17.1
2018-01-25T06:18:14.453Z,16.91
2018-01-25T06:19:23.575Z,19.28
2018-01-25T06:20:32.402Z,16.63
2018-01-25T06:21:41.233Z,17.1
2018-01-25T06:22:50.162Z,14.92
2018-01-25T06:23:58.988Z,16.63
2018-01-25T06:25:07.818Z,19.48
2018-01-25T06:26:16.645Z,19.29
2018-01-25T06:27:25.472Z,18.52
2018-01-25T06:28:34.301Z,18.53
2018-01-25T06:29:43.132Z,18.52
2018-01-25T06:30:51.961Z,16.44
2018-01-25T06:32:00.791Z,20.43
2018-01-25T06:33:09.621Z,20.53
2018-01-25T06:34:18.651Z,21.09
2018-01-25T06:35:27.481Z,20.34
2018-01-25T06:36:36.309Z,20.53
2018-01-25T06:37:45.139Z,19.66
2018-01-25T06:38:53.975Z,19.56
2018-01-25T06:40:03.051Z,19.47
2018-01-25T06:41:12.153Z,19.18
2018-01-25T06:42:20.983Z,19.18
2018-01-25T06:43:29.817Z,19.85
2018-01-25T06:44:38.647Z,19.47
2018-01-25T06:45:47.480Z,18.71
2018-01-25T06:46:56.311Z,20.23
2018-01-25T06:48:05.140Z,18.9
2018-01-25T06:49:13.969Z,17.57
2018-01-25T06:50:22.801Z,16.52
2018-01-25T06:51:31.955Z,17.77
2018-01-25T06:52:40.785Z,17.29
2018-01-25T06:53:49.614Z,19.76
2018-01-25T06:54:58.444Z,19.2
2018-01-25T06:56:07.273Z,17.01
2018-01-25T06:57:16.252Z,17.2
2018-01-25T06:58:25.081Z,17.39
2018-01-25T06:59:33.916Z,17.48
2018-01-25T07:00:43.017Z,17.58
2018-01-25T07:01:51.842Z,16.53
2018-01-25T07:03:00.972Z,17.2
2018-01-25T07:04:09.801Z,16.25
2018-01-25T07:05:18.630Z,15.87
2018-01-25T07:06:27.460Z,15.77
2018-01-25T07:07:36.289Z,13.78
2018-01-25T07:08:45.271Z,14.44
2018-01-25T07:09:54.103Z,15.77
2018-01-25T07:11:03.485Z,15.58
2018-01-25T07:12:12.360Z,16.25
2018-01-25T07:13:21.151Z,13.87
2018-01-25T07:14:30.284Z,14.73
2018-01-25T07:15:39.387Z,15.01
2018-01-25T07:16:48.215Z,14.06
2018-01-25T07:17:57.048Z,14.06
2018-01-25T07:19:05.880Z,14.44
2018-01-25T07:20:15.257Z,14.25
2018-01-25T07:21:24.089Z,14.06
2018-01-25T07:22:32.921Z,14.73
2018-01-25T07:23:41.748Z,13.02
2018-01-25T07:24:50.580Z,15.39
2018-01-25T07:25:59.410Z,14.06
2018-01-25T07:27:08.238Z,13.59
2018-01-25T07:28:17.069Z,13.1
2018-01-25T07:29:25.900Z,13.87
2018-01-25T07:30:34.731Z,13.68
2018-01-25T07:31:43.710Z,13.39
2018-01-25T07:32:52.542Z,13.58
2018-01-25T07:34:01.651Z,13.01
2018-01-25T07:35:10.482Z,12.16
2018-01-25T07:36:19.313Z,11.96
2018-01-25T07:37:28.294Z,9.97
2018-01-25T07:38:37.122Z,9.88
2018-01-25T07:39:45.952Z,12.16
2018-01-25T07:40:55.057Z,12.06
2018-01-25T07:42:03.887Z,12.25
2018-01-25T07:43:12.719Z,11.4
2018-01-25T07:44:21.550Z,11.3
2018-01-25T07:45:30.381Z,11.02
2018-01-25T07:46:39.211Z,11.4
2018-01-25T07:47:48.043Z,10.16
2018-01-25T07:48:57.070Z,10.44
2018-01-25T07:50:05.900Z,10.35
2018-01-25T07:51:14.731Z,10.25
2018-01-25T07:52:23.561Z,9.31
2018-01-25T07:53:32.392Z,10.25
2018-01-25T07:54:41.273Z,10.25
2018-01-25T07:55:50.100Z,10.35
2018-01-25T07:56:58.930Z,10.35
2018-01-25T07:58:07.762Z,10.25
2018-01-25T07:59:16.629Z,10.25
2018-01-25T08:00:25.422Z,10.16
2018-01-25T08:01:34.537Z,9.97
2018-01-25T08:02:43.370Z,10.83
2018-01-25T08:03:52.202Z,9.88
2018-01-25T08:05:01.033Z,10.83
2018-01-25T08:06:09.965Z,10.35
2018-01-25T08:07:18.796Z,10.73
2018-01-25T08:08:27.624Z,11.02
2018-01-25T08:09:36.475Z,9.88
2018-01-25T08:10:45.285Z,10.92
2018-01-25T08:11:54.216Z,11.58
2018-01-25T08:13:03.049Z,11.3
2018-01-25T08:14:12.155Z,10.92
2018-01-25T08:15:20.986Z,10.73
2018-01-25T08:16:29.820Z,10.73
2018-01-25T08:17:38.799Z,10.73
2018-01-25T08:18:47.631Z,10.83
2018-01-25T08:19:56.465Z,10.17
2018-01-25T08:21:05.293Z,11.4
2018-01-25T08:22:14.125Z,12.16
2018-01-25T08:23:23.103Z,13.02
2018-01-25T08:24:31.937Z,12.07
2018-01-25T08:25:40.767Z,12.35
2018-01-25T08:26:49.599Z,12.45
2018-01-25T08:27:58.432Z,13.3
2018-01-25T08:29:07.263Z,11.4
2018-01-25T08:30:16.093Z,13.4
2018-01-25T08:31:24.925Z,13.11
2018-01-25T08:32:33.756Z,14.25
2018-01-25T08:33:42.585Z,12.16
2018-01-25T08:34:51.417Z,13.87
2018-01-25T08:36:00.250Z,13.49
2018-01-25T08:37:09.082Z,14.06
2018-01-25T08:38:18.197Z,14.35
2018-01-25T08:39:27.027Z,15.68
2018-01-25T08:40:35.960Z,15.48
2018-01-25T08:41:44.793Z,16.82
2018-01-25T08:42:53.623Z,16.63
2018-01-25T08:44:02.457Z,15.68
2018-01-25T08:45:11.289Z,15.39
2018-01-25T08:46:20.122Z,15.2
2018-01-25T08:47:28.954Z,15.87
2018-01-25T08:48:37.846Z,16.82
2018-01-25T08:49:46.952Z,16.72
2018-01-25T08:50:55.783Z,17.86
2018-01-25T08:52:04.715Z,15.96
2018-01-25T08:53:13.821Z,15.3
2018-01-25T08:54:22.652Z,13.4
2018-01-25T08:55:31.483Z,16.63
2018-01-25T08:56:40.316Z,16.63
2018-01-25T08:57:49.342Z,19.01
2018-01-25T08:58:58.128Z,20.05
2018-01-25T09:00:06.963Z,21.47
2018-01-25T09:01:15.794Z,20.24
2018-01-25T09:02:24.627Z,21
2018-01-25T09:03:33.559Z,22.24
2018-01-25T09:04:42.393Z,20.43
2018-01-25T09:05:51.500Z,20.53
2018-01-25T09:07:00.604Z,20.24
2018-01-25T09:08:09.436Z,21.67
2018-01-25T09:09:18.418Z,23.09
2018-01-25T09:10:27.245Z,24.71
2018-01-25T09:11:36.079Z,20.62
2018-01-25T09:12:44.911Z,24.15
2018-01-25T09:13:54.014Z,23.47
2018-01-25T09:15:03.374Z,25.29
2018-01-25T09:16:12.204Z,16.64
2018-01-25T09:17:21.037Z,21.58
2018-01-25T09:18:30.148Z,24.34
2018-01-25T09:19:38.979Z,21.58
2018-01-25T09:20:47.861Z,23.58
2018-01-25T09:21:56.693Z,23.86
2018-01-25T09:23:05.525Z,26.62
2018-01-25T09:24:14.354Z,23.1
2018-01-25T09:25:23.183Z,26.62
2018-01-25T09:26:32.167Z,24.62
2018-01-25T09:27:41.001Z,25.86
2018-01-25T09:28:49.834Z,27
2018-01-25T09:29:58.668Z,21.11
2018-01-25T09:31:07.500Z,25.76
2018-01-25T09:32:16.333Z,27.09
2018-01-25T09:33:25.166Z,28.23
2018-01-25T09:34:33.999Z,26.24
2018-01-25T09:35:42.828Z,26.9
2018-01-25T09:36:51.657Z,27.48
2018-01-25T09:38:00.556Z,30.23
2018-01-25T09:39:09.371Z,31.37
2018-01-25T09:40:18.203Z,30.71
2018-01-25T09:41:27.035Z,31.47
2018-01-25T09:42:35.869Z,31.56
2018-01-25T09:43:44.749Z,30.8
2018-01-25T09:44:53.580Z,33.18
2018-01-25T09:46:02.697Z,32.9
2018-01-25T09:47:11.811Z,30.52
2018-01-25T09:48:20.641Z,31.28
2018-01-25T09:49:29.625Z,31.95
2018-01-25T09:50:38.457Z,36.04
2018-01-25T09:51:47.287Z,36.04
2018-01-25T09:52:56.118Z,37.55
2018-01-25T09:54:04.950Z,36.13
2018-01-25T09:55:13.832Z,36.22
2018-01-25T09:56:22.667Z,33.28
2018-01-25T09:57:31.500Z,36.79
2018-01-25T09:58:40.336Z,35.37
2018-01-25T09:59:49.167Z,37.27
2018-01-25T10:00:58.573Z,37.18
2018-01-25T10:02:07.406Z,36.79
2018-01-25T10:03:16.239Z,37.65
2018-01-25T10:04:25.348Z,36.79
2018-01-25T10:05:34.180Z,38.41
2018-01-25T10:06:43.063Z,35.08
2018-01-25T10:07:51.896Z,37.76
2018-01-25T10:09:00.725Z,38.9
2018-01-25T10:10:09.556Z,40.71
2018-01-25T10:11:18.390Z,38.81
2018-01-25T10:12:27.650Z,39.76
2018-01-25T10:13:36.734Z,40.05
2018-01-25T10:14:45.567Z,38.71
2018-01-25T10:15:54.398Z,39.48
2018-01-25T10:17:03.234Z,41.85
2018-01-25T10:18:12.167Z,43.28
2018-01-25T10:19:21.000Z,41.47
2018-01-25T10:20:29.834Z,43.38
2018-01-25T10:21:38.668Z,41.47
2018-01-25T10:22:47.506Z,40.23
2018-01-25T10:23:56.712Z,40.9
2018-01-25T10:25:05.544Z,42.61
2018-01-25T10:26:14.378Z,42.9
2018-01-25T10:27:23.249Z,43.66
2018-01-25T10:28:32.045Z,44.42
2018-01-25T10:29:41.128Z,42.99
2018-01-25T10:30:49.962Z,44.13
2018-01-25T10:31:58.796Z,43.95
2018-01-25T10:33:07.630Z,45.28
2018-01-25T10:34:16.737Z,44.23
2018-01-25T10:35:25.571Z,46.7
2018-01-25T10:36:34.403Z,37.57
2018-01-25T10:37:43.235Z,45.28
2018-01-25T10:38:52.068Z,46.99
2018-01-25T10:40:00.903Z,42.71
2018-01-25T10:41:10.159Z,45.75
2018-01-25T10:42:18.993Z,47.85
2018-01-25T10:43:27.878Z,47.94
2018-01-25T10:44:36.711Z,45.95
2018-01-25T10:45:45.544Z,42.71
2018-01-25T10:46:54.679Z,48.42
2018-01-25T10:48:03.512Z,47.94
2018-01-25T10:49:12.627Z,48.32
2018-01-25T10:50:21.460Z,50.23
2018-01-25T10:51:30.293Z,47.47
2018-01-25T10:52:39.276Z,49.56
2018-01-25T10:53:48.109Z,51.37
2018-01-25T10:54:56.943Z,50.7
2018-01-25T10:56:06.053Z,49.85
2018-01-25T10:57:14.893Z,46.14
2018-01-25T10:58:23.818Z,49.85
2018-01-25T10:59:32.650Z,53.55
2018-01-25T11:00:41.761Z,53.75
2018-01-25T11:01:50.592Z,52.89
2018-01-25T11:02:59.427Z,51.37
2018-01-25T11:04:08.409Z,51.75
2018-01-25T11:05:17.241Z,50.79
2018-01-25T11:06:26.077Z,49.75
2018-01-25T11:07:34.909Z,52.61
2018-01-25T11:08:43.743Z,52.61
2018-01-25T11:09:52.581Z,53.75
2018-01-25T11:11:01.415Z,51.46
2018-01-25T11:12:10.247Z,52.61
2018-01-25T11:13:19.079Z,53.17
2018-01-25T11:14:27.911Z,53.17
2018-01-25T11:15:36.850Z,52.61
2018-01-25T11:16:45.688Z,51.75
2018-01-25T11:17:54.515Z,49.37
2018-01-25T11:19:03.347Z,50.42
2018-01-25T11:20:12.459Z,51.56
2018-01-25T11:21:21.291Z,53.27
2018-01-25T11:22:30.125Z,55.17
2018-01-25T11:23:38.956Z,52.89
2018-01-25T11:24:47.790Z,55.65
2018-01-25T11:25:56.906Z,54.13
2018-01-25T11:27:05.989Z,55.65
2018-01-25T11:28:15.095Z,55.74
2018-01-25T11:29:23.924Z,55.74
2018-01-25T11:30:32.757Z,55.55
2018-01-25T11:31:41.619Z,55.55
2018-01-25T11:32:50.726Z,55.55
2018-01-25T11:33:59.559Z,54.98
2018-01-25T11:35:08.394Z,54.98
2018-01-25T11:36:17.228Z,55.36
2018-01-25T11:37:26.067Z,54.98
2018-01-25T11:38:35.170Z,55.74
2018-01-25T11:39:44.548Z,56.51
2018-01-25T11:40:53.380Z,56.31
2018-01-25T11:42:02.213Z,55.46
2018-01-25T11:43:11.047Z,56.12
2018-01-25T11:44:19.981Z,55.27
2018-01-25T11:45:28.815Z,52.03
2018-01-25T11:46:37.652Z,57.29
2018-01-25T11:47:46.760Z,56.88
2018-01-25T11:48:55.601Z,58.88
2018-01-25T11:50:04.435Z,59.96
2018-01-25T11:51:13.269Z,58.88
2018-01-25T11:52:22.162Z,58.4
2018-01-25T11:53:31.272Z,59.74
2018-01-25T11:54:40.304Z,59.74
2018-01-25T11:55:49.138Z,59.01
2018-01-25T11:56:57.971Z,61.29
2018-01-25T11:58:06.805Z,60.97
2018-01-25T11:59:15.641Z,61.1
2018-01-25T12:00:24.770Z,61.48
2018-01-25T12:01:33.584Z,60.97
2018-01-25T12:02:42.692Z,60.44
2018-01-25T12:03:51.526Z,61.26
2018-01-25T12:05:00.360Z,59.77
2018-01-25T12:06:09.194Z,53.84
2018-01-25T12:07:18.031Z,60.63
2018-01-25T12:08:26.862Z,57.36
2018-01-25T12:09:35.704Z,61.29
2018-01-25T12:10:44.586Z,60.72
2018-01-25T12:11:53.376Z,62.53
2018-01-25T12:13:02.211Z,62.24
2018-01-25T12:14:11.044Z,60.72
2018-01-25T12:15:19.876Z,61.67
2018-01-25T12:16:28.708Z,62.81
2018-01-25T12:17:37.543Z,62.91
2018-01-25T12:18:46.375Z,61.29
2018-01-25T12:19:55.210Z,62.24
2018-01-25T12:21:04.191Z,63.2
2018-01-25T12:22:13.029Z,64.72
2018-01-25T12:23:22.134Z,63.86
2018-01-25T12:24:30.968Z,60.24
2018-01-25T12:25:40.077Z,64.15
2018-01-25T12:26:49.230Z,63.76
2018-01-25T12:27:58.105Z,61.29
2018-01-25T12:29:06.935Z,61.86
2018-01-25T12:30:15.790Z,62.62
2018-01-25T12:31:24.635Z,62.72
2018-01-25T12:32:33.920Z,63.1
2018-01-25T12:33:42.755Z,64.81
2018-01-25T12:34:51.591Z,65.29
2018-01-25T12:36:00.426Z,64.62
2018-01-25T12:37:09.259Z,64.05
2018-01-25T12:38:18.142Z,63.29
2018-01-25T12:39:26.977Z,63.67
2018-01-25T12:40:35.811Z,66.91
2018-01-25T12:41:44.644Z,66.81
2018-01-25T12:42:53.477Z,64.9
2018-01-25T12:44:02.311Z,65.77
2018-01-25T12:45:11.145Z,67
2018-01-25T12:46:19.980Z,66.14
2018-01-25T12:47:28.812Z,67.38
2018-01-25T12:48:37.646Z,65.86
2018-01-25T12:49:46.631Z,68.24
2018-01-25T12:50:55.462Z,68.43
2018-01-25T12:52:04.297Z,68.71
2018-01-25T12:53:13.131Z,68.43
2018-01-25T12:54:21.963Z,66.81
2018-01-25T12:55:30.950Z,68.33
2018-01-25T12:56:39.782Z,67.38
2018-01-25T12:57:48.628Z,66.33
2018-01-25T12:58:57.464Z,67.38
2018-01-25T13:00:06.299Z,67.38
2018-01-25T13:01:15.390Z,69.38
2018-01-25T13:02:24.224Z,68.9
2018-01-25T13:03:33.056Z,68.71
2018-01-25T13:04:41.892Z,68.9
2018-01-25T13:05:50.724Z,68.33
2018-01-25T13:06:59.557Z,66.33
2018-01-25T13:08:08.391Z,68.81
2018-01-25T13:09:17.224Z,65.67
2018-01-25T13:10:26.059Z,67.67
2018-01-25T13:11:34.894Z,68.71
2018-01-25T13:12:43.826Z,67.1
2018-01-25T13:13:52.659Z,70.24
2018-01-25T13:15:01.495Z,70.33
2018-01-25T13:16:10.328Z,68.52
2018-01-25T13:17:19.161Z,68.33
2018-01-25T13:18:28.369Z,66.81
2018-01-25T13:19:37.202Z,69.48
2018-01-25T13:20:46.035Z,67.47
2018-01-25T13:21:54.868Z,70.72
2018-01-25T13:23:03.701Z,70.9
2018-01-25T13:24:12.692Z,71.76
2018-01-25T13:25:21.527Z,69.76
2018-01-25T13:26:30.358Z,71.67
2018-01-25T13:27:39.193Z,68.05
2018-01-25T13:28:48.033Z,70.62
2018-01-25T13:29:56.961Z,70.72
2018-01-25T13:31:05.844Z,71.47
2018-01-25T13:32:14.680Z,71.67
2018-01-25T13:33:23.513Z,71
2018-01-25T13:34:32.348Z,69.57
2018-01-25T13:35:41.235Z,69
2018-01-25T13:36:50.070Z,70.33
2018-01-25T13:37:58.903Z,69.1
2018-01-25T13:39:07.738Z,70.14
2018-01-25T13:40:16.572Z,69.57
2018-01-25T13:41:25.509Z,70.72
2018-01-25T13:42:34.342Z,71.19
2018-01-25T13:43:43.177Z,69.19
2018-01-25T13:44:52.015Z,71.09
2018-01-25T13:46:00.844Z,71.19
2018-01-25T13:47:09.779Z,71.38
2018-01-25T13:48:18.611Z,71.95
2018-01-25T13:49:27.717Z,71.47
2018-01-25T13:50:36.551Z,71.86
2018-01-25T13:51:45.385Z,72.71
2018-01-25T13:52:54.322Z,72.05
2018-01-25T13:54:03.155Z,71.67
2018-01-25T13:55:11.988Z,71.09
2018-01-25T13:56:20.821Z,72.14
2018-01-25T13:57:29.655Z,72.05
2018-01-25T13:58:38.590Z,71.86
2018-01-25T13:59:47.424Z,71.28
2018-01-25T14:00:56.258Z,70.24
2018-01-25T14:02:05.095Z,71.19
2018-01-25T14:03:13.931Z,71.19
2018-01-25T14:04:22.815Z,70.81
2018-01-25T14:05:31.646Z,69.95
2018-01-25T14:06:40.756Z,71.28
2018-01-25T14:07:49.593Z,70.24
2018-01-25T14:08:58.423Z,71
2018-01-25T14:10:07.408Z,71.09
2018-01-25T14:11:16.241Z,70.14
2018-01-25T14:12:25.072Z,73
2018-01-25T14:13:33.906Z,73.66
2018-01-25T14:14:42.737Z,73.95
2018-01-25T14:15:51.619Z,72.81
2018-01-25T14:17:00.455Z,74.33
2018-01-25T14:18:09.559Z,73.66
2018-01-25T14:19:18.391Z,72.71
2018-01-25T14:20:27.225Z,73.19
2018-01-25T14:21:36.057Z,73.66
2018-01-25T14:22:45.162Z,73.47
2018-01-25T14:23:53.996Z,73.19
2018-01-25T14:25:02.829Z,72.62
2018-01-25T14:26:11.682Z,73.66
2018-01-25T14:27:20.663Z,72.62
2018-01-25T14:28:29.497Z,72.81
2018-01-25T14:29:38.331Z,73.85
2018-01-25T14:30:47.439Z,73.66
2018-01-25T14:31:56.272Z,72.05
2018-01-25T14:33:05.106Z,72.81
2018-01-25T14:34:13.941Z,73.19
2018-01-25T14:35:22.773Z,73.57
2018-01-25T14:36:31.606Z,73.47
2018-01-25T14:37:40.471Z,74.52
2018-01-25T14:38:49.549Z,73.85
2018-01-25T14:39:58.725Z,74.52
2018-01-25T14:41:08.150Z,73.76
2018-01-25T14:42:17.330Z,74.14
2018-01-25T14:43:26.249Z,74.33
2018-01-25T14:44:35.302Z,74.04
2018-01-25T14:45:44.136Z,73.85
2018-01-25T14:46:53.246Z,74.62
2018-01-25T14:48:02.355Z,74.04
2018-01-25T14:49:11.210Z,74.1
2018-01-25T14:50:20.370Z,73.91
2018-01-25T14:51:29.203Z,74.1
2018-01-25T14:52:38.038Z,74.01
2018-01-25T14:53:46.870Z,73.57
2018-01-25T14:54:55.708Z,73.82
2018-01-25T14:56:04.971Z,73.63
2018-01-25T14:57:14.087Z,74.29
2018-01-25T14:58:22.928Z,74.01
2018-01-25T14:59:31.759Z,73.72
2018-01-25T15:00:40.592Z,74.01
2018-01-25T15:01:49.725Z,74.39
2018-01-25T15:02:58.904Z,74.2
2018-01-25T15:04:07.393Z,73.91
2018-01-25T15:05:16.230Z,69.82
2018-01-25T15:06:25.060Z,73.53
2018-01-25T15:07:33.944Z,73.53
2018-01-25T15:08:43.052Z,72.86
2018-01-25T15:09:52.161Z,73.72
2018-01-25T15:11:01.264Z,72.96
2018-01-25T15:12:10.100Z,72.39
2018-01-25T15:13:18.980Z,71.63
2018-01-25T15:14:27.812Z,72.86
2018-01-25T15:15:36.646Z,70.68
2018-01-25T15:16:45.478Z,71.91
2018-01-25T15:17:54.311Z,72.77
2018-01-25T15:19:03.245Z,72.39
2018-01-25T15:20:12.078Z,72.58
2018-01-25T15:21:20.913Z,71.63
2018-01-25T15:22:30.025Z,72.11
2018-01-25T15:23:39.129Z,71.91
2018-01-25T15:24:48.141Z,72.3
2018-01-25T15:25:56.945Z,71.34
2018-01-25T15:27:05.779Z,71.82
2018-01-25T15:28:14.615Z,70.68
2018-01-25T15:29:23.449Z,71.15